sensor_id;sensor_type;location;lat;lon;timestamp;P1;durP1;ratioP1;P2;durP2;ratioP2
33553;SDS011;19885;42.208;24.952;2023-02-10T00:00:44;11.13;;;6.97;;
33553;SDS011;19885;42.208;24.952;2023-02-10T00:03:09;12.20;;;5.60;;
33553;SDS011;19885;42.208;24.952;2023-02-10T00:05:35;10.40;;;5.97;;
33553;SDS011;19885;42.208;24.952;2023-02-10T00:08:00;12.90;;;6.53;;
33553;SDS011;19885;42.208;24.952;2023-02-10T00:10:26;11.97;;;6.97;;
33553;SDS011;19885;42.208;24.952;2023-02-10T00:12:51;12.00;;;6.53;;
33553;SDS011;19885;42.208;24.952;2023-02-10T00:15:17;9.50;;;6.07;;
33553;SDS011;19885;42.208;24.952;2023-02-10T00:17:42;15.13;;;6.30;;
33553;SDS011;19885;42.208;24.952;2023-02-10T00:20:08;11.83;;;6.63;;
33553;SDS011;19885;42.208;24.952;2023-02-10T00:22:34;11.83;;;6.03;;
33553;SDS011;19885;42.208;24.952;2023-02-10T00:24:59;15.30;;;7.30;;
33553;SDS011;19885;42.208;24.952;2023-02-10T00:27:25;14.43;;;7.27;;
33553;SDS011;19885;42.208;24.952;2023-02-10T00:29:50;11.30;;;6.67;;
33553;SDS011;19885;42.208;24.952;2023-02-10T00:32:16;16.23;;;6.97;;
33553;SDS011;19885;42.208;24.952;2023-02-10T00:34:42;15.20;;;8.87;;
33553;SDS011;19885;42.208;24.952;2023-02-10T00:37:12;18.03;;;11.27;;
33553;SDS011;19885;42.208;24.952;2023-02-10T00:39:38;19.60;;;10.03;;
33553;SDS011;19885;42.208;24.952;2023-02-10T00:42:04;17.50;;;9.90;;
33553;SDS011;19885;42.208;24.952;2023-02-10T00:44:29;17.80;;;8.47;;
33553;SDS011;19885;42.208;24.952;2023-02-10T00:46:55;18.40;;;8.80;;
33553;SDS011;19885;42.208;24.952;2023-02-10T00:49:20;13.90;;;7.93;;
33553;SDS011;19885;42.208;24.952;2023-02-10T00:51:46;12.70;;;6.80;;
33553;SDS011;19885;42.208;24.952;2023-02-10T00:54:11;16.67;;;6.97;;
33553;SDS011;19885;42.208;24.952;2023-02-10T00:56:37;12.93;;;6.93;;
33553;SDS011;19885;42.208;24.952;2023-02-10T00:59:03;16.03;;;7.80;;
33553;SDS011;19885;42.208;24.952;2023-02-10T01:01:29;15.43;;;7.60;;
33553;SDS011;19885;42.208;24.952;2023-02-10T01:03:54;13.57;;;7.23;;
33553;SDS011;19885;42.208;24.952;2023-02-10T01:06:20;16.80;;;7.07;;
33553;SDS011;19885;42.208;24.952;2023-02-10T01:08:45;12.77;;;6.83;;
33553;SDS011;19885;42.208;24.952;2023-02-10T01:11:12;12.53;;;6.43;;
33553;SDS011;19885;42.208;24.952;2023-02-10T01:13:42;20.73;;;9.93;;
33553;SDS011;19885;42.208;24.952;2023-02-10T01:16:09;24.80;;;10.40;;
33553;SDS011;19885;42.208;24.952;2023-02-10T01:18:38;26.47;;;10.57;;
33553;SDS011;19885;42.208;24.952;2023-02-10T01:21:06;23.45;;;9.10;;
33553;SDS011;19885;42.208;24.952;2023-02-10T01:23:36;21.93;;;9.33;;
33553;SDS011;19885;42.208;24.952;2023-02-10T01:26:02;32.67;;;10.10;;
33553;SDS011;19885;42.208;24.952;2023-02-10T01:28:28;23.83;;;9.80;;
33553;SDS011;19885;42.208;24.952;2023-02-10T01:30:54;26.23;;;10.97;;
33553;SDS011;19885;42.208;24.952;2023-02-10T01:33:19;32.60;;;10.13;;
33553;SDS011;19885;42.208;24.952;2023-02-10T01:35:45;29.73;;;9.60;;
33553;SDS011;19885;42.208;24.952;2023-02-10T01:38:10;21.97;;;8.63;;
33553;SDS011;19885;42.208;24.952;2023-02-10T01:40:36;26.33;;;8.53;;
33553;SDS011;19885;42.208;24.952;2023-02-10T01:43:02;19.53;;;9.03;;
33553;SDS011;19885;42.208;24.952;2023-02-10T01:45:34;19.43;;;7.60;;
33553;SDS011;19885;42.208;24.952;2023-02-10T01:48:03;21.60;;;11.93;;
33553;SDS011;19885;42.208;24.952;2023-02-10T01:50:40;24.57;;;10.40;;
33553;SDS011;19885;42.208;24.952;2023-02-10T01:53:36;19.97;;;8.87;;
33553;SDS011;19885;42.208;24.952;2023-02-10T01:56:02;16.77;;;9.43;;
33553;SDS011;19885;42.208;24.952;2023-02-10T01:58:29;23.73;;;9.27;;
33553;SDS011;19885;42.208;24.952;2023-02-10T02:00:57;16.30;;;8.23;;
33553;SDS011;19885;42.208;24.952;2023-02-10T02:03:23;18.17;;;8.80;;
33553;SDS011;19885;42.208;24.952;2023-02-10T02:05:49;18.50;;;9.20;;
33553;SDS011;19885;42.208;24.952;2023-02-10T02:08:21;18.80;;;9.37;;
33553;SDS011;19885;42.208;24.952;2023-02-10T02:13:30;16.17;;;7.60;;
33553;SDS011;19885;42.208;24.952;2023-02-10T02:25:17;15.67;;;6.33;;
33553;SDS011;19885;42.208;24.952;2023-02-10T02:33:13;10.20;;;6.23;;
33553;SDS011;19885;42.208;24.952;2023-02-10T02:35:44;13.70;;;7.27;;
33553;SDS011;19885;42.208;24.952;2023-02-10T02:38:16;14.87;;;6.87;;
33553;SDS011;19885;42.208;24.952;2023-02-10T02:40:41;11.43;;;6.17;;
33553;SDS011;19885;42.208;24.952;2023-02-10T02:43:07;10.17;;;5.87;;
33553;SDS011;19885;42.208;24.952;2023-02-10T02:45:35;15.67;;;6.63;;
33553;SDS011;19885;42.208;24.952;2023-02-10T02:50:44;16.80;;;8.03;;
33553;SDS011;19885;42.208;24.952;2023-02-10T02:53:32;20.50;;;8.50;;
33553;SDS011;19885;42.208;24.952;2023-02-10T02:56:22;17.20;;;7.87;;
33553;SDS011;19885;42.208;24.952;2023-02-10T03:01:45;23.73;;;12.40;;
33553;SDS011;19885;42.208;24.952;2023-02-10T03:04:29;26.13;;;12.27;;
33553;SDS011;19885;42.208;24.952;2023-02-10T03:06:58;23.17;;;11.73;;
33553;SDS011;19885;42.208;24.952;2023-02-10T03:09:24;15.03;;;8.17;;
33553;SDS011;19885;42.208;24.952;2023-02-10T03:11:51;15.53;;;7.47;;
33553;SDS011;19885;42.208;24.952;2023-02-10T03:14:16;16.93;;;7.70;;
33553;SDS011;19885;42.208;24.952;2023-02-10T03:16:42;17.30;;;8.13;;
33553;SDS011;19885;42.208;24.952;2023-02-10T03:19:07;15.13;;;7.50;;
33553;SDS011;19885;42.208;24.952;2023-02-10T03:21:33;16.70;;;8.20;;
33553;SDS011;19885;42.208;24.952;2023-02-10T03:23:58;13.50;;;7.17;;
33553;SDS011;19885;42.208;24.952;2023-02-10T03:26:26;16.80;;;8.23;;
33553;SDS011;19885;42.208;24.952;2023-02-10T03:28:54;14.50;;;7.33;;
33553;SDS011;19885;42.208;24.952;2023-02-10T03:31:20;13.87;;;8.20;;
33553;SDS011;19885;42.208;24.952;2023-02-10T03:33:46;19.67;;;7.93;;
33553;SDS011;19885;42.208;24.952;2023-02-10T03:36:11;17.63;;;8.37;;
33553;SDS011;19885;42.208;24.952;2023-02-10T03:38:39;15.93;;;7.43;;
33553;SDS011;19885;42.208;24.952;2023-02-10T03:41:07;19.13;;;7.60;;
33553;SDS011;19885;42.208;24.952;2023-02-10T03:43:33;18.03;;;7.77;;
33553;SDS011;19885;42.208;24.952;2023-02-10T03:45:59;17.90;;;7.57;;
33553;SDS011;19885;42.208;24.952;2023-02-10T03:48:26;18.10;;;8.50;;
33553;SDS011;19885;42.208;24.952;2023-02-10T03:50:56;20.07;;;7.13;;
33553;SDS011;19885;42.208;24.952;2023-02-10T03:53:26;17.77;;;8.90;;
33553;SDS011;19885;42.208;24.952;2023-02-10T03:55:52;17.43;;;7.50;;
33553;SDS011;19885;42.208;24.952;2023-02-10T03:58:18;17.87;;;8.73;;
33553;SDS011;19885;42.208;24.952;2023-02-10T04:00:43;18.43;;;8.37;;
33553;SDS011;19885;42.208;24.952;2023-02-10T04:03:09;20.40;;;7.83;;
33553;SDS011;19885;42.208;24.952;2023-02-10T04:05:36;23.07;;;8.83;;
33553;SDS011;19885;42.208;24.952;2023-02-10T04:08:02;17.37;;;7.03;;
33553;SDS011;19885;42.208;24.952;2023-02-10T04:10:27;13.30;;;7.57;;
33553;SDS011;19885;42.208;24.952;2023-02-10T04:12:53;16.80;;;8.93;;
33553;SDS011;19885;42.208;24.952;2023-02-10T04:15:21;15.37;;;8.23;;
33553;SDS011;19885;42.208;24.952;2023-02-10T04:17:47;20.83;;;8.80;;
33553;SDS011;19885;42.208;24.952;2023-02-10T04:20:13;15.20;;;7.30;;
33553;SDS011;19885;42.208;24.952;2023-02-10T04:22:39;21.57;;;8.33;;
33553;SDS011;19885;42.208;24.952;2023-02-10T04:25:05;18.50;;;7.73;;
33553;SDS011;19885;42.208;24.952;2023-02-10T04:27:31;16.17;;;7.50;;
33553;SDS011;19885;42.208;24.952;2023-02-10T04:29:56;14.63;;;7.80;;
33553;SDS011;19885;42.208;24.952;2023-02-10T04:32:22;16.13;;;7.13;;
33553;SDS011;19885;42.208;24.952;2023-02-10T04:34:47;20.10;;;8.30;;
33553;SDS011;19885;42.208;24.952;2023-02-10T04:37:13;23.47;;;9.20;;
33553;SDS011;19885;42.208;24.952;2023-02-10T04:39:38;16.97;;;7.67;;
33553;SDS011;19885;42.208;24.952;2023-02-10T04:42:04;15.60;;;7.83;;
33553;SDS011;19885;42.208;24.952;2023-02-10T04:44:29;21.37;;;7.07;;
33553;SDS011;19885;42.208;24.952;2023-02-10T04:46:55;16.73;;;7.37;;
33553;SDS011;19885;42.208;24.952;2023-02-10T04:49:20;15.10;;;8.10;;
33553;SDS011;19885;42.208;24.952;2023-02-10T04:51:48;17.37;;;9.73;;
33553;SDS011;19885;42.208;24.952;2023-02-10T04:54:14;18.83;;;9.47;;
33553;SDS011;19885;42.208;24.952;2023-02-10T04:56:39;33.13;;;15.20;;
33553;SDS011;19885;42.208;24.952;2023-02-10T04:59:05;43.23;;;18.27;;
33553;SDS011;19885;42.208;24.952;2023-02-10T05:01:31;47.17;;;19.40;;
33553;SDS011;19885;42.208;24.952;2023-02-10T05:03:56;37.10;;;16.53;;
33553;SDS011;19885;42.208;24.952;2023-02-10T05:06:22;23.93;;;8.80;;
33553;SDS011;19885;42.208;24.952;2023-02-10T05:08:47;21.17;;;9.80;;
33553;SDS011;19885;42.208;24.952;2023-02-10T05:11:14;17.10;;;8.07;;
33553;SDS011;19885;42.208;24.952;2023-02-10T05:13:40;20.57;;;9.27;;
33553;SDS011;19885;42.208;24.952;2023-02-10T05:16:07;17.73;;;8.33;;
33553;SDS011;19885;42.208;24.952;2023-02-10T05:18:36;17.67;;;8.07;;
33553;SDS011;19885;42.208;24.952;2023-02-10T05:21:01;16.53;;;8.90;;
33553;SDS011;19885;42.208;24.952;2023-02-10T05:23:27;19.03;;;7.67;;
33553;SDS011;19885;42.208;24.952;2023-02-10T05:25:53;15.53;;;8.40;;
33553;SDS011;19885;42.208;24.952;2023-02-10T05:28:19;15.07;;;7.70;;
33553;SDS011;19885;42.208;24.952;2023-02-10T05:30:46;19.43;;;7.77;;
33553;SDS011;19885;42.208;24.952;2023-02-10T05:33:12;15.30;;;8.17;;
33553;SDS011;19885;42.208;24.952;2023-02-10T05:35:38;19.60;;;8.50;;
33553;SDS011;19885;42.208;24.952;2023-02-10T05:38:03;32.17;;;14.63;;
33553;SDS011;19885;42.208;24.952;2023-02-10T05:40:29;45.80;;;18.80;;
33553;SDS011;19885;42.208;24.952;2023-02-10T05:42:58;43.87;;;20.20;;
33553;SDS011;19885;42.208;24.952;2023-02-10T05:45:23;28.47;;;13.03;;
33553;SDS011;19885;42.208;24.952;2023-02-10T05:47:49;23.53;;;11.00;;
33553;SDS011;19885;42.208;24.952;2023-02-10T05:50:17;29.70;;;13.90;;
33553;SDS011;19885;42.208;24.952;2023-02-10T05:52:46;45.40;;;12.33;;
33553;SDS011;19885;42.208;24.952;2023-02-10T05:55:11;19.90;;;9.00;;
33553;SDS011;19885;42.208;24.952;2023-02-10T05:57:37;26.47;;;10.07;;
33553;SDS011;19885;42.208;24.952;2023-02-10T06:00:03;17.53;;;8.33;;
33553;SDS011;19885;42.208;24.952;2023-02-10T06:02:30;18.60;;;8.97;;
33553;SDS011;19885;42.208;24.952;2023-02-10T06:04:55;25.87;;;9.30;;
33553;SDS011;19885;42.208;24.952;2023-02-10T06:07:21;21.07;;;10.40;;
33553;SDS011;19885;42.208;24.952;2023-02-10T06:09:49;17.43;;;8.67;;
33553;SDS011;19885;42.208;24.952;2023-02-10T06:12:17;18.97;;;10.23;;
33553;SDS011;19885;42.208;24.952;2023-02-10T06:14:47;25.17;;;13.23;;
33553;SDS011;19885;42.208;24.952;2023-02-10T06:17:15;44.73;;;18.90;;
33553;SDS011;19885;42.208;24.952;2023-02-10T06:19:46;50.97;;;21.67;;
33553;SDS011;19885;42.208;24.952;2023-02-10T06:22:14;26.23;;;11.40;;
33553;SDS011;19885;42.208;24.952;2023-02-10T06:24:43;46.13;;;18.43;;
33553;SDS011;19885;42.208;24.952;2023-02-10T06:27:08;37.03;;;16.20;;
33553;SDS011;19885;42.208;24.952;2023-02-10T06:29:34;20.20;;;9.80;;
33553;SDS011;19885;42.208;24.952;2023-02-10T06:32:02;13.57;;;7.47;;
33553;SDS011;19885;42.208;24.952;2023-02-10T06:34:28;15.80;;;7.57;;
33553;SDS011;19885;42.208;24.952;2023-02-10T06:36:53;14.33;;;6.87;;
33553;SDS011;19885;42.208;24.952;2023-02-10T06:39:22;14.17;;;7.93;;
33553;SDS011;19885;42.208;24.952;2023-02-10T06:41:48;13.67;;;6.87;;
33553;SDS011;19885;42.208;24.952;2023-02-10T06:44:17;15.67;;;6.80;;
33553;SDS011;19885;42.208;24.952;2023-02-10T06:46:42;15.77;;;7.57;;
33553;SDS011;19885;42.208;24.952;2023-02-10T06:49:07;21.23;;;8.53;;
33553;SDS011;19885;42.208;24.952;2023-02-10T06:51:39;18.80;;;7.87;;
33553;SDS011;19885;42.208;24.952;2023-02-10T06:54:04;13.47;;;7.50;;
33553;SDS011;19885;42.208;24.952;2023-02-10T06:56:32;14.73;;;7.87;;
33553;SDS011;19885;42.208;24.952;2023-02-10T06:58:58;13.20;;;7.97;;
33553;SDS011;19885;42.208;24.952;2023-02-10T07:01:23;24.83;;;8.70;;
33553;SDS011;19885;42.208;24.952;2023-02-10T07:03:51;15.87;;;7.30;;
33553;SDS011;19885;42.208;24.952;2023-02-10T07:06:16;14.93;;;8.13;;
33553;SDS011;19885;42.208;24.952;2023-02-10T07:08:43;17.07;;;8.07;;
33553;SDS011;19885;42.208;24.952;2023-02-10T07:11:09;16.53;;;8.90;;
33553;SDS011;19885;42.208;24.952;2023-02-10T07:13:35;17.47;;;9.13;;
33553;SDS011;19885;42.208;24.952;2023-02-10T07:16:01;24.00;;;10.23;;
33553;SDS011;19885;42.208;24.952;2023-02-10T07:18:26;22.57;;;9.10;;
33553;SDS011;19885;42.208;24.952;2023-02-10T07:20:54;17.30;;;9.20;;
33553;SDS011;19885;42.208;24.952;2023-02-10T07:23:20;20.50;;;10.07;;
33553;SDS011;19885;42.208;24.952;2023-02-10T07:25:48;16.73;;;8.53;;
33553;SDS011;19885;42.208;24.952;2023-02-10T07:28:13;18.40;;;8.60;;
33553;SDS011;19885;42.208;24.952;2023-02-10T07:30:39;17.00;;;8.80;;
33553;SDS011;19885;42.208;24.952;2023-02-10T07:33:04;19.47;;;9.03;;
33553;SDS011;19885;42.208;24.952;2023-02-10T07:35:30;21.13;;;9.23;;
33553;SDS011;19885;42.208;24.952;2023-02-10T07:37:55;16.63;;;9.37;;
33553;SDS011;19885;42.208;24.952;2023-02-10T07:40:20;18.57;;;10.60;;
33553;SDS011;19885;42.208;24.952;2023-02-10T07:42:46;19.13;;;9.87;;
33553;SDS011;19885;42.208;24.952;2023-02-10T07:45:12;19.70;;;10.73;;
33553;SDS011;19885;42.208;24.952;2023-02-10T07:47:37;19.03;;;8.60;;
33553;SDS011;19885;42.208;24.952;2023-02-10T07:50:03;19.20;;;9.20;;
33553;SDS011;19885;42.208;24.952;2023-02-10T07:52:28;14.43;;;9.23;;
33553;SDS011;19885;42.208;24.952;2023-02-10T07:54:54;18.30;;;9.13;;
33553;SDS011;19885;42.208;24.952;2023-02-10T07:57:20;14.83;;;8.33;;
33553;SDS011;19885;42.208;24.952;2023-02-10T07:59:46;15.10;;;8.53;;
33553;SDS011;19885;42.208;24.952;2023-02-10T08:02:11;14.50;;;7.23;;
33553;SDS011;19885;42.208;24.952;2023-02-10T08:04:37;14.17;;;8.97;;
33553;SDS011;19885;42.208;24.952;2023-02-10T08:07:02;11.53;;;6.90;;
33553;SDS011;19885;42.208;24.952;2023-02-10T08:09:29;12.17;;;6.87;;
33553;SDS011;19885;42.208;24.952;2023-02-10T08:11:54;12.73;;;7.47;;
33553;SDS011;19885;42.208;24.952;2023-02-10T08:14:19;14.87;;;7.53;;
33553;SDS011;19885;42.208;24.952;2023-02-10T08:16:45;16.27;;;8.53;;
33553;SDS011;19885;42.208;24.952;2023-02-10T08:19:11;17.23;;;7.23;;
33553;SDS011;19885;42.208;24.952;2023-02-10T08:21:37;11.70;;;8.07;;
33553;SDS011;19885;42.208;24.952;2023-02-10T08:24:02;13.67;;;7.63;;
33553;SDS011;19885;42.208;24.952;2023-02-10T08:26:28;9.97;;;6.80;;
33553;SDS011;19885;42.208;24.952;2023-02-10T08:28:53;13.93;;;7.37;;
33553;SDS011;19885;42.208;24.952;2023-02-10T08:31:19;12.70;;;7.07;;
33553;SDS011;19885;42.208;24.952;2023-02-10T08:33:45;12.73;;;7.03;;
33553;SDS011;19885;42.208;24.952;2023-02-10T08:36:11;12.20;;;7.00;;
33553;SDS011;19885;42.208;24.952;2023-02-10T08:38:39;13.77;;;6.73;;
33553;SDS011;19885;42.208;24.952;2023-02-10T08:41:04;17.27;;;7.47;;
33553;SDS011;19885;42.208;24.952;2023-02-10T08:43:30;14.50;;;7.77;;
33553;SDS011;19885;42.208;24.952;2023-02-10T08:45:56;17.10;;;7.57;;
33553;SDS011;19885;42.208;24.952;2023-02-10T08:48:24;15.90;;;8.43;;
33553;SDS011;19885;42.208;24.952;2023-02-10T08:50:50;17.57;;;8.90;;
33553;SDS011;19885;42.208;24.952;2023-02-10T08:53:15;13.00;;;7.07;;
33553;SDS011;19885;42.208;24.952;2023-02-10T08:55:41;12.43;;;7.23;;
33553;SDS011;19885;42.208;24.952;2023-02-10T08:58:06;12.60;;;7.03;;
33553;SDS011;19885;42.208;24.952;2023-02-10T09:00:32;13.93;;;8.03;;
33553;SDS011;19885;42.208;24.952;2023-02-10T09:02:58;21.27;;;8.27;;
33553;SDS011;19885;42.208;24.952;2023-02-10T09:05:23;18.77;;;8.03;;
33553;SDS011;19885;42.208;24.952;2023-02-10T09:07:49;17.83;;;9.20;;
33553;SDS011;19885;42.208;24.952;2023-02-10T09:10:15;17.10;;;8.10;;
33553;SDS011;19885;42.208;24.952;2023-02-10T09:12:41;12.33;;;8.47;;
33553;SDS011;19885;42.208;24.952;2023-02-10T09:15:07;13.03;;;7.80;;
33553;SDS011;19885;42.208;24.952;2023-02-10T09:17:33;13.17;;;7.27;;
33553;SDS011;19885;42.208;24.952;2023-02-10T09:19:59;13.23;;;7.00;;
33553;SDS011;19885;42.208;24.952;2023-02-10T09:22:24;18.80;;;8.93;;
33553;SDS011;19885;42.208;24.952;2023-02-10T09:24:50;15.20;;;8.10;;
33553;SDS011;19885;42.208;24.952;2023-02-10T09:27:17;12.00;;;6.87;;
33553;SDS011;19885;42.208;24.952;2023-02-10T09:29:43;17.90;;;7.77;;
33553;SDS011;19885;42.208;24.952;2023-02-10T09:32:09;14.77;;;8.57;;
33553;SDS011;19885;42.208;24.952;2023-02-10T09:34:36;14.43;;;7.67;;
33553;SDS011;19885;42.208;24.952;2023-02-10T09:37:01;16.80;;;7.33;;
33553;SDS011;19885;42.208;24.952;2023-02-10T09:39:28;13.73;;;7.60;;
33553;SDS011;19885;42.208;24.952;2023-02-10T09:44:46;12.57;;;7.23;;
33553;SDS011;19885;42.208;24.952;2023-02-10T09:55:23;14.00;;;7.63;;
33553;SDS011;19885;42.208;24.952;2023-02-10T09:57:56;11.53;;;6.90;;
33553;SDS011;19885;42.208;24.952;2023-02-10T10:00:35;12.17;;;7.13;;
33553;SDS011;19885;42.208;24.952;2023-02-10T10:03:05;10.97;;;7.13;;
33553;SDS011;19885;42.208;24.952;2023-02-10T10:11:01;14.87;;;7.53;;
33553;SDS011;19885;42.208;24.952;2023-02-10T10:13:37;12.03;;;6.27;;
33553;SDS011;19885;42.208;24.952;2023-02-10T10:19:15;11.57;;;7.07;;
33553;SDS011;19885;42.208;24.952;2023-02-10T10:22:06;14.60;;;6.87;;
33553;SDS011;19885;42.208;24.952;2023-02-10T10:27:22;10.30;;;5.57;;
33553;SDS011;19885;42.208;24.952;2023-02-10T10:30:00;12.20;;;6.43;;
33553;SDS011;19885;42.208;24.952;2023-02-10T10:32:46;9.73;;;6.00;;
33553;SDS011;19885;42.208;24.952;2023-02-10T10:35:16;8.57;;;5.13;;
33553;SDS011;19885;42.208;24.952;2023-02-10T10:37:48;14.37;;;5.37;;
33553;SDS011;19885;42.208;24.952;2023-02-10T10:40:17;13.97;;;6.67;;
33553;SDS011;19885;42.208;24.952;2023-02-10T10:42:48;12.63;;;5.60;;
33553;SDS011;19885;42.208;24.952;2023-02-10T10:45:19;9.00;;;5.43;;
33553;SDS011;19885;42.208;24.952;2023-02-10T10:47:51;7.57;;;4.77;;
33553;SDS011;19885;42.208;24.952;2023-02-10T10:50:20;8.57;;;5.30;;
33553;SDS011;19885;42.208;24.952;2023-02-10T10:52:49;10.57;;;5.83;;
33553;SDS011;19885;42.208;24.952;2023-02-10T10:58:26;9.43;;;5.63;;
33553;SDS011;19885;42.208;24.952;2023-02-10T11:00:52;9.93;;;5.70;;
33553;SDS011;19885;42.208;24.952;2023-02-10T11:03:20;8.53;;;5.13;;
33553;SDS011;19885;42.208;24.952;2023-02-10T11:05:59;8.73;;;5.87;;
33553;SDS011;19885;42.208;24.952;2023-02-10T11:08:38;13.97;;;6.53;;
33553;SDS011;19885;42.208;24.952;2023-02-10T11:11:09;13.00;;;7.07;;
33553;SDS011;19885;42.208;24.952;2023-02-10T11:13:41;9.83;;;5.30;;
33553;SDS011;19885;42.208;24.952;2023-02-10T11:16:14;10.80;;;5.77;;
33553;SDS011;19885;42.208;24.952;2023-02-10T11:18:55;8.87;;;5.00;;
33553;SDS011;19885;42.208;24.952;2023-02-10T11:21:35;11.85;;;5.65;;
33553;SDS011;19885;42.208;24.952;2023-02-10T11:24:19;11.37;;;5.80;;
33553;SDS011;19885;42.208;24.952;2023-02-10T11:27:04;7.07;;;4.27;;
33553;SDS011;19885;42.208;24.952;2023-02-10T11:29:55;10.33;;;6.17;;
33553;SDS011;19885;42.208;24.952;2023-02-10T11:32:29;9.70;;;5.10;;
33553;SDS011;19885;42.208;24.952;2023-02-10T11:34:59;13.50;;;6.67;;
33553;SDS011;19885;42.208;24.952;2023-02-10T11:39:55;10.90;;;5.40;;
33553;SDS011;19885;42.208;24.952;2023-02-10T11:42:26;10.17;;;6.17;;
33553;SDS011;19885;42.208;24.952;2023-02-10T11:47:20;8.83;;;5.07;;
33553;SDS011;19885;42.208;24.952;2023-02-10T11:49:47;13.00;;;5.43;;
33553;SDS011;19885;42.208;24.952;2023-02-10T11:52:14;9.63;;;5.10;;
33553;SDS011;19885;42.208;24.952;2023-02-10T11:54:41;10.87;;;5.57;;
33553;SDS011;19885;42.208;24.952;2023-02-10T12:10:47;12.40;;;5.27;;
33553;SDS011;19885;42.208;24.952;2023-02-10T12:16:18;11.20;;;5.97;;
33553;SDS011;19885;42.208;24.952;2023-02-10T12:21:45;10.73;;;5.13;;
33553;SDS011;19885;42.208;24.952;2023-02-10T12:27:26;9.23;;;5.50;;
33553;SDS011;19885;42.208;24.952;2023-02-10T12:41:35;12.87;;;5.80;;
33553;SDS011;19885;42.208;24.952;2023-02-10T12:44:12;15.20;;;6.07;;
33553;SDS011;19885;42.208;24.952;2023-02-10T12:52:00;8.13;;;5.40;;
33553;SDS011;19885;42.208;24.952;2023-02-10T12:57:14;12.70;;;5.90;;
33553;SDS011;19885;42.208;24.952;2023-02-10T12:59:54;13.17;;;5.83;;
33553;SDS011;19885;42.208;24.952;2023-02-10T13:02:29;10.73;;;5.37;;
33553;SDS011;19885;42.208;24.952;2023-02-10T13:05:04;8.77;;;5.23;;
33553;SDS011;19885;42.208;24.952;2023-02-10T13:10:29;7.70;;;4.63;;
33553;SDS011;19885;42.208;24.952;2023-02-10T13:13:03;10.97;;;5.53;;
33553;SDS011;19885;42.208;24.952;2023-02-10T13:18:18;7.50;;;4.57;;
33553;SDS011;19885;42.208;24.952;2023-02-10T13:26:09;13.50;;;5.80;;
33553;SDS011;19885;42.208;24.952;2023-02-10T13:31:43;11.50;;;6.07;;
33553;SDS011;19885;42.208;24.952;2023-02-10T13:34:49;12.50;;;5.43;;
33553;SDS011;19885;42.208;24.952;2023-02-10T13:37:35;11.33;;;5.63;;
33553;SDS011;19885;42.208;24.952;2023-02-10T13:40:26;8.33;;;5.17;;
33553;SDS011;19885;42.208;24.952;2023-02-10T13:42:59;12.23;;;5.30;;
33553;SDS011;19885;42.208;24.952;2023-02-10T13:45:28;8.00;;;4.87;;
33553;SDS011;19885;42.208;24.952;2023-02-10T13:47:57;7.40;;;5.20;;
33553;SDS011;19885;42.208;24.952;2023-02-10T13:53:04;6.30;;;4.30;;
33553;SDS011;19885;42.208;24.952;2023-02-10T13:55:49;7.17;;;4.63;;
33553;SDS011;19885;42.208;24.952;2023-02-10T13:58:33;13.10;;;5.70;;
33553;SDS011;19885;42.208;24.952;2023-02-10T14:00:59;15.53;;;5.33;;
33553;SDS011;19885;42.208;24.952;2023-02-10T14:03:27;10.13;;;5.73;;
33553;SDS011;19885;42.208;24.952;2023-02-10T14:08:32;8.30;;;4.33;;
33553;SDS011;19885;42.208;24.952;2023-02-10T14:13:44;10.93;;;5.83;;
33553;SDS011;19885;42.208;24.952;2023-02-10T14:16:44;11.87;;;5.10;;
33553;SDS011;19885;42.208;24.952;2023-02-10T14:22:20;8.37;;;5.90;;
33553;SDS011;19885;42.208;24.952;2023-02-10T14:24:48;7.97;;;5.47;;
33553;SDS011;19885;42.208;24.952;2023-02-10T14:27:14;10.30;;;5.73;;
33553;SDS011;19885;42.208;24.952;2023-02-10T14:29:47;12.37;;;5.77;;
33553;SDS011;19885;42.208;24.952;2023-02-10T14:32:16;8.43;;;5.97;;
33553;SDS011;19885;42.208;24.952;2023-02-10T14:34:52;11.83;;;5.83;;
33553;SDS011;19885;42.208;24.952;2023-02-10T14:37:22;10.47;;;5.77;;
33553;SDS011;19885;42.208;24.952;2023-02-10T14:39:52;15.03;;;5.50;;
33553;SDS011;19885;42.208;24.952;2023-02-10T14:42:24;8.03;;;5.23;;
33553;SDS011;19885;42.208;24.952;2023-02-10T14:44:53;12.40;;;6.17;;
33553;SDS011;19885;42.208;24.952;2023-02-10T14:47:21;12.03;;;7.40;;
33553;SDS011;19885;42.208;24.952;2023-02-10T14:49:53;10.90;;;6.03;;
33553;SDS011;19885;42.208;24.952;2023-02-10T14:52:31;13.20;;;6.07;;
33553;SDS011;19885;42.208;24.952;2023-02-10T14:54:59;15.67;;;5.20;;
33553;SDS011;19885;42.208;24.952;2023-02-10T14:57:25;11.73;;;6.30;;
33553;SDS011;19885;42.208;24.952;2023-02-10T14:59:53;9.93;;;5.37;;
33553;SDS011;19885;42.208;24.952;2023-02-10T15:02:20;13.43;;;6.97;;
33553;SDS011;19885;42.208;24.952;2023-02-10T15:04:48;12.80;;;5.83;;
33553;SDS011;19885;42.208;24.952;2023-02-10T15:07:20;17.50;;;6.93;;
33553;SDS011;19885;42.208;24.952;2023-02-10T15:10:02;15.27;;;6.07;;
33553;SDS011;19885;42.208;24.952;2023-02-10T15:12:43;16.17;;;7.83;;
33553;SDS011;19885;42.208;24.952;2023-02-10T15:17:39;12.87;;;6.97;;
33553;SDS011;19885;42.208;24.952;2023-02-10T15:28:19;25.43;;;13.47;;
33553;SDS011;19885;42.208;24.952;2023-02-10T15:30:55;21.83;;;13.27;;
33553;SDS011;19885;42.208;24.952;2023-02-10T15:38:52;18.70;;;10.93;;
33553;SDS011;19885;42.208;24.952;2023-02-10T15:41:43;23.43;;;11.50;;
33553;SDS011;19885;42.208;24.952;2023-02-10T15:44:26;15.80;;;10.33;;
33553;SDS011;19885;42.208;24.952;2023-02-10T15:49:45;23.23;;;11.27;;
33553;SDS011;19885;42.208;24.952;2023-02-10T15:52:19;18.80;;;9.70;;
33553;SDS011;19885;42.208;24.952;2023-02-10T15:54:47;28.77;;;14.80;;
33553;SDS011;19885;42.208;24.952;2023-02-10T15:57:17;40.87;;;17.43;;
33553;SDS011;19885;42.208;24.952;2023-02-10T15:59:44;25.83;;;12.67;;
33553;SDS011;19885;42.208;24.952;2023-02-10T16:02:16;25.07;;;12.30;;
33553;SDS011;19885;42.208;24.952;2023-02-10T16:04:42;25.07;;;10.67;;
33553;SDS011;19885;42.208;24.952;2023-02-10T16:07:13;16.27;;;8.57;;
33553;SDS011;19885;42.208;24.952;2023-02-10T16:09:44;27.00;;;11.60;;
33553;SDS011;19885;42.208;24.952;2023-02-10T16:12:09;21.67;;;12.57;;
33553;SDS011;19885;42.208;24.952;2023-02-10T16:14:35;28.23;;;14.20;;
33553;SDS011;19885;42.208;24.952;2023-02-10T16:17:00;31.17;;;13.57;;
33553;SDS011;19885;42.208;24.952;2023-02-10T16:19:27;32.00;;;13.47;;
33553;SDS011;19885;42.208;24.952;2023-02-10T16:21:53;28.87;;;13.07;;
33553;SDS011;19885;42.208;24.952;2023-02-10T16:24:21;30.93;;;13.17;;
33553;SDS011;19885;42.208;24.952;2023-02-10T16:26:52;33.63;;;13.03;;
33553;SDS011;19885;42.208;24.952;2023-02-10T16:29:19;41.73;;;16.20;;
33553;SDS011;19885;42.208;24.952;2023-02-10T16:31:48;44.47;;;15.53;;
33553;SDS011;19885;42.208;24.952;2023-02-10T16:34:14;48.60;;;16.80;;
33553;SDS011;19885;42.208;24.952;2023-02-10T16:36:39;36.97;;;16.40;;
33553;SDS011;19885;42.208;24.952;2023-02-10T16:39:09;50.53;;;16.87;;
33553;SDS011;19885;42.208;24.952;2023-02-10T16:41:38;37.63;;;17.73;;
33553;SDS011;19885;42.208;24.952;2023-02-10T16:44:06;58.70;;;21.13;;
33553;SDS011;19885;42.208;24.952;2023-02-10T16:46:31;68.47;;;25.10;;
33553;SDS011;19885;42.208;24.952;2023-02-10T16:48:59;68.60;;;25.83;;